Time;durP1;ratioP1;P1;durP2;ratioP2;P2;SDS_P1;SDS_P2;PMS_P1;PMS_P2;Temp;Humidity;BMP_temperature;BMP_pressure;BME280_temperature;BME280_humidity;BME280_pressure;Samples;Min_cycle;Max_cycle;Signal;HPM_P1;HPM_P2
2021/10/18 00:01:34;;;;;;;10.45;9.32;;;13.20;99.90;;;;;;5015679;28;20326;-73
2021/10/18 00:04:01;;;;;;;9.05;8.13;;;13.20;99.90;;;;;;5014882;28;20618;-72
2021/10/18 00:06:29;;;;;;;9.20;8.15;;;13.20;99.90;;;;;;5015466;28;20233;-73
2021/10/18 00:09:03;;;;;;;9.93;8.90;;;13.30;99.90;;;;;;5015058;28;20629;-72
2021/10/18 00:11:30;;;;;;;10.60;8.48;;;13.20;99.90;;;;;;5015289;28;20679;-73
2021/10/18 00:13:57;;;;;;;11.23;7.60;;;13.30;99.90;;;;;;5014995;28;20564;-73
2021/10/18 00:16:25;;;;;;;8.57;7.68;;;13.30;99.90;;;;;;5015449;28;20813;-73
2021/10/18 00:18:52;;;;;;;8.60;6.90;;;13.20;99.90;;;;;;5014758;28;20928;-72
2021/10/18 00:21:19;;;;;;;10.00;7.03;;;13.30;99.90;;;;;;5015147;28;20283;-72
2021/10/18 00:23:46;;;;;;;9.98;7.43;;;13.30;99.90;;;;;;5014826;28;20285;-72
2021/10/18 00:26:14;;;;;;;10.57;6.63;;;13.30;99.90;;;;;;5014798;28;20549;-73
2021/10/18 00:28:41;;;;;;;7.15;6.45;;;13.30;99.90;;;;;;5013569;28;20221;-73
2021/10/18 00:31:08;;;;;;;9.98;9.02;;;13.30;99.90;;;;;;5014769;28;20226;-72
2021/10/18 00:33:36;;;;;;;8.65;7.85;;;13.20;99.90;;;;;;5011074;28;20600;-73
2021/10/18 00:36:03;;;;;;;11.13;7.55;;;13.20;99.90;;;;;;5014502;28;20638;-73
2021/10/18 00:38:30;;;;;;;8.80;7.15;;;13.20;99.90;;;;;;4998875;28;20231;-72
2021/10/18 00:40:57;;;;;;;9.60;6.65;;;13.20;99.90;;;;;;4994890;28;20234;-73
2021/10/18 00:43:24;;;;;;;7.45;6.85;;;13.30;99.90;;;;;;5009015;28;20545;-72
2021/10/18 00:45:51;;;;;;;6.95;6.25;;;13.30;99.90;;;;;;5014457;28;20226;-73
2021/10/18 00:48:18;;;;;;;8.68;7.30;;;13.30;99.90;;;;;;5014692;28;20217;-73
2021/10/18 00:50:47;;;;;;;8.15;7.30;;;13.30;99.90;;;;;;5014405;28;20238;-72
2021/10/18 00:53:15;;;;;;;6.72;6.13;;;13.30;99.90;;;;;;5014541;28;20225;-73
2021/10/18 00:55:42;;;;;;;9.75;8.10;;;13.30;99.90;;;;;;5014601;28;20319;-73
2021/10/18 00:58:09;;;;;;;8.45;7.35;;;13.30;99.90;;;;;;5014361;28;20641;-72
2021/10/18 01:00:36;;;;;;;9.82;8.50;;;13.30;99.90;;;;;;5014307;28;20234;-73
2021/10/18 01:03:03;;;;;;;10.25;7.68;;;13.30;99.90;;;;;;5014044;28;20680;-73
2021/10/18 01:05:34;;;;;;;10.55;9.18;;;13.30;99.90;;;;;;5014325;28;20226;-73
2021/10/18 01:08:03;;;;;;;12.75;8.50;;;13.30;99.90;;;;;;5013293;28;20230;-73
2021/10/18 01:10:30;;;;;;;8.95;8.05;;;13.20;99.90;;;;;;5014439;28;20226;-73
2021/10/18 01:12:57;;;;;;;10.07;8.35;;;13.20;99.90;;;;;;5013881;28;20715;-72
2021/10/18 01:15:24;;;;;;;9.38;8.00;;;13.20;99.90;;;;;;5014239;28;20238;-72
2021/10/18 01:17:51;;;;;;;9.60;8.70;;;13.20;99.90;;;;;;5013885;28;20226;-72
2021/10/18 01:20:29;;;;;;;9.05;8.15;;;13.30;99.90;;;;;;5014275;28;20672;-72
2021/10/18 01:22:56;;;;;;;10.95;9.05;;;13.30;99.90;;;;;;5013557;28;20226;-73
2021/10/18 01:25:24;;;;;;;12.45;7.68;;;13.30;99.90;;;;;;5013999;28;20620;-72
2021/10/18 01:27:51;;;;;;;11.27;7.88;;;13.30;99.90;;;;;;5013666;28;20625;-72
2021/10/18 01:30:19;;;;;;;12.18;7.72;;;13.30;99.90;;;;;;5013656;28;20237;-72
2021/10/18 01:32:46;;;;;;;8.38;7.50;;;13.30;99.90;;;;;;5013935;28;20257;-73
2021/10/18 01:35:13;;;;;;;15.25;12.98;;;13.30;99.90;;;;;;5013906;28;20312;-72
2021/10/18 01:37:42;;;;;;;17.17;13.68;;;13.30;99.90;;;;;;5014028;28;20615;-73
2021/10/18 01:40:10;;;;;;;12.02;10.82;;;13.30;99.90;;;;;;5013284;28;20233;-72
2021/10/18 01:42:37;;;;;;;10.45;9.43;;;13.30;99.90;;;;;;5006287;28;20697;-73
2021/10/18 01:45:05;;;;;;;9.88;8.88;;;13.30;99.90;;;;;;5011055;28;20692;-72
2021/10/18 01:47:32;;;;;;;8.68;7.80;;;13.30;99.90;;;;;;5013629;28;20233;-73
2021/10/18 01:49:59;;;;;;;11.80;8.80;;;13.30;99.90;;;;;;5013217;28;20766;-72
2021/10/18 01:52:27;;;;;;;14.55;9.23;;;13.30;99.90;;;;;;5013563;28;20241;-73
2021/10/18 01:54:55;;;;;;;11.40;8.80;;;13.30;99.90;;;;;;5013052;28;20287;-73
2021/10/18 01:57:22;;;;;;;9.95;8.90;;;13.30;99.90;;;;;;5013571;28;20226;-72
2021/10/18 01:59:49;;;;;;;9.13;8.20;;;13.30;99.90;;;;;;5013247;28;20237;-73
2021/10/18 02:02:16;;;;;;;9.32;7.80;;;13.30;99.90;;;;;;5021654;28;20233;-72
2021/10/18 02:04:43;;;;;;;11.13;9.23;;;13.30;99.90;;;;;;5013538;28;20300;-72
2021/10/18 02:07:10;;;;;;;10.25;9.25;;;13.30;99.90;;;;;;5012837;28;20288;-73
2021/10/18 02:09:36;;;;;;;8.70;7.90;;;13.30;99.90;;;;;;5013301;28;20446;-73
2021/10/18 02:12:06;;;;;;;9.75;8.52;;;13.30;99.90;;;;;;5013030;28;20244;-72
2021/10/18 02:14:33;;;;;;;10.60;9.48;;;13.30;99.90;;;;;;5013437;28;20230;-73
2021/10/18 02:16:59;;;;;;;8.88;7.97;;;13.30;99.90;;;;;;5012916;28;20742;-73
2021/10/18 02:19:26;;;;;;;12.82;9.18;;;13.30;99.90;;;;;;5012903;28;20294;-73
2021/10/18 02:21:53;;;;;;;9.43;8.50;;;13.30;99.90;;;;;;5012878;28;20291;-72
2021/10/18 02:24:20;;;;;;;10.13;8.50;;;13.30;99.90;;;;;;5013201;28;20835;-72
2021/10/18 02:26:47;;;;;;;7.80;6.95;;;13.30;99.90;;;;;;5013110;28;20288;-72
2021/10/18 02:29:16;;;;;;;10.45;7.70;;;13.40;99.90;;;;;;5012351;28;20230;-72
2021/10/18 02:31:42;;;;;;;7.82;6.55;;;13.40;99.90;;;;;;5013414;28;20226;-72
2021/10/18 02:34:09;;;;;;;6.90;6.20;;;13.40;99.90;;;;;;5013023;28;20236;-73
2021/10/18 02:36:36;;;;;;;10.65;7.30;;;13.40;99.90;;;;;;5012927;28;20239;-73
2021/10/18 02:39:04;;;;;;;7.90;7.10;;;13.50;99.90;;;;;;5012391;28;20229;-73
2021/10/18 02:41:31;;;;;;;7.40;6.57;;;13.50;99.90;;;;;;5012871;28;20296;-72
2021/10/18 02:43:57;;;;;;;8.38;5.95;;;13.50;99.90;;;;;;5002398;28;20230;-72
2021/10/18 02:46:26;;;;;;;6.20;5.60;;;13.60;99.90;;;;;;5013144;28;20230;-72
2021/10/18 02:48:53;;;;;;;6.80;5.65;;;13.60;99.90;;;;;;5012925;28;20238;-72
2021/10/18 02:51:20;;;;;;;9.07;6.18;;;13.60;99.90;;;;;;5020821;28;21325;-72
2021/10/18 02:53:47;;;;;;;8.10;6.78;;;13.70;99.90;;;;;;5012914;28;20254;-72
2021/10/18 02:56:14;;;;;;;6.80;6.07;;;13.70;99.90;;;;;;5012355;28;20299;-72
2021/10/18 02:58:41;;;;;;;6.65;4.90;;;13.60;99.90;;;;;;5012822;28;20604;-72
2021/10/18 03:01:08;;;;;;;6.40;5.60;;;13.70;99.90;;;;;;5012387;28;20260;-73
2021/10/18 03:03:37;;;;;;;5.53;4.87;;;13.70;99.90;;;;;;5012731;28;20241;-73
2021/10/18 03:06:04;;;;;;;6.05;5.55;;;13.70;99.90;;;;;;5012168;28;20507;-72
2021/10/18 03:08:31;;;;;;;7.38;4.60;;;13.70;99.90;;;;;;5012437;28;20299;-72
2021/10/18 03:10:58;;;;;;;6.75;5.78;;;13.70;99.90;;;;;;5012373;28;20288;-73
2021/10/18 03:13:25;;;;;;;6.60;5.97;;;13.70;99.90;;;;;;5012632;28;20269;-72
2021/10/18 03:15:52;;;;;;;8.05;6.35;;;13.70;99.90;;;;;;5012825;28;20252;-72
2021/10/18 03:18:19;;;;;;;6.65;4.90;;;13.70;99.90;;;;;;5012144;28;20233;-72
2021/10/18 03:20:47;;;;;;;9.55;6.10;;;13.70;99.90;;;;;;5012733;28;20288;-72
2021/10/18 03:23:14;;;;;;;10.02;6.40;;;13.70;99.90;;;;;;5012137;28;20596;-73
2021/10/18 03:25:41;;;;;;;5.90;5.30;;;13.70;99.90;;;;;;5012529;28;20230;-73
2021/10/18 03:28:08;;;;;;;7.13;5.97;;;13.70;99.90;;;;;;5012004;28;20372;-73
2021/10/18 03:30:35;;;;;;;8.77;6.15;;;13.70;99.90;;;;;;5013224;28;20554;-73
2021/10/18 03:33:02;;;;;;;5.55;5.00;;;13.80;99.90;;;;;;5015838;28;20234;-72
2021/10/18 03:35:29;;;;;;;6.18;5.57;;;13.80;99.90;;;;;;5016032;28;20541;-73
2021/10/18 03:37:57;;;;;;;5.18;4.78;;;13.70;99.90;;;;;;5015788;28;20234;-72
2021/10/18 03:40:24;;;;;;;6.53;4.85;;;13.80;99.90;;;;;;5009004;28;20744;-72
2021/10/18 03:42:51;;;;;;;6.22;4.68;;;13.70;99.90;;;;;;5005562;28;20707;-72
2021/10/18 03:45:18;;;;;;;5.97;4.80;;;13.70;99.90;;;;;;5015382;28;20288;-73
2021/10/18 03:47:45;;;;;;;5.93;4.75;;;13.70;99.90;;;;;;5015994;28;20465;-72
2021/10/18 03:50:15;;;;;;;4.32;3.97;;;13.70;99.90;;;;;;5015163;28;20253;-72
2021/10/18 03:52:42;;;;;;;6.07;4.65;;;13.70;99.90;;;;;;5015721;28;20623;-72
2021/10/18 03:55:11;;;;;;;4.75;3.50;;;13.70;99.90;;;;;;5015344;28;20222;-72
2021/10/18 03:57:38;;;;;;;4.85;4.45;;;13.70;99.90;;;;;;5015792;28;20241;-73
2021/10/18 04:00:07;;;;;;;4.97;4.47;;;13.70;99.90;;;;;;5014962;28;20230;-72
2021/10/18 04:02:36;;;;;;;5.18;4.70;;;13.70;99.90;;;;;;5015824;28;20688;-72
2021/10/18 04:05:03;;;;;;;5.53;4.65;;;13.70;99.90;;;;;;5015236;28;20309;-73
2021/10/18 04:07:30;;;;;;;6.18;4.40;;;13.70;99.90;;;;;;5015410;28;20252;-72
2021/10/18 04:09:57;;;;;;;5.20;4.70;;;13.70;99.90;;;;;;5015478;28;20633;-72
2021/10/18 04:12:25;;;;;;;5.10;4.63;;;13.70;99.90;;;;;;5015011;28;20603;-72
2021/10/18 04:14:53;;;;;;;5.05;4.55;;;13.70;99.90;;;;;;5015406;28;20473;-72
2021/10/18 04:17:19;;;;;;;5.28;4.38;;;13.70;99.90;;;;;;5014805;28;20214;-72
2021/10/18 04:19:46;;;;;;;4.80;4.25;;;13.70;99.90;;;;;;5015358;28;20300;-73
2021/10/18 04:22:13;;;;;;;4.45;4.03;;;13.70;99.90;;;;;;5014806;28;20222;-73
2021/10/18 04:24:40;;;;;;;6.28;3.42;;;13.70;99.90;;;;;;5015338;28;20229;-73
2021/10/18 04:27:07;;;;;;;4.28;3.88;;;13.70;99.90;;;;;;5014861;28;20582;-72
2021/10/18 04:29:35;;;;;;;6.22;4.00;;;13.70;99.90;;;;;;5014870;28;20230;-72
2021/10/18 04:32:03;;;;;;;4.63;3.92;;;13.70;99.90;;;;;;5015222;28;20225;-73
2021/10/18 04:34:30;;;;;;;4.80;4.05;;;13.70;99.90;;;;;;5014641;28;20214;-72
2021/10/18 04:36:57;;;;;;;9.82;4.68;;;13.70;99.90;;;;;;5014988;28;20229;-73
2021/10/18 04:39:24;;;;;;;4.10;3.65;;;13.60;99.90;;;;;;5014389;28;20317;-72
2021/10/18 04:41:51;;;;;;;4.20;3.80;;;13.70;99.90;;;;;;5013452;28;20229;-73
2021/10/18 04:44:18;;;;;;;4.55;4.10;;;13.70;99.90;;;;;;5005942;28;20707;-72
2021/10/18 04:46:46;;;;;;;5.10;3.47;;;13.70;99.90;;;;;;5014936;28;20291;-72
2021/10/18 04:49:13;;;;;;;4.38;3.65;;;13.70;99.90;;;;;;5014217;28;20538;-72
2021/10/18 04:51:40;;;;;;;5.93;3.95;;;13.70;99.90;;;;;;5014576;28;20684;-72
2021/10/18 04:54:07;;;;;;;4.57;4.00;;;13.70;99.90;;;;;;5014274;28;20670;-72
2021/10/18 04:56:34;;;;;;;4.38;3.95;;;13.70;99.90;;;;;;5014590;28;20539;-72
2021/10/18 04:59:01;;;;;;;3.70;3.40;;;13.70;99.90;;;;;;5014430;28;20257;-72
2021/10/18 05:01:28;;;;;;;4.50;3.40;;;13.70;99.90;;;;;;5013960;28;20226;-73
2021/10/18 05:03:56;;;;;;;5.68;3.65;;;13.70;99.90;;;;;;5014363;28;20222;-73
2021/10/18 05:06:23;;;;;;;3.13;2.92;;;13.70;99.90;;;;;;5014102;28;20230;-73
2021/10/18 05:08:50;;;;;;;4.15;3.38;;;13.70;99.90;;;;;;5014154;28;20225;-73
2021/10/18 05:11:17;;;;;;;4.28;3.55;;;13.70;99.90;;;;;;5013806;28;20706;-73
2021/10/18 05:13:44;;;;;;;4.03;3.40;;;13.70;99.90;;;;;;5014365;28;20230;-72
2021/10/18 05:16:11;;;;;;;3.70;3.40;;;13.80;99.90;;;;;;5013767;28;20222;-72
2021/10/18 05:18:38;;;;;;;3.87;3.33;;;13.80;99.90;;;;;;5000578;28;20231;-72
2021/10/18 05:21:06;;;;;;;3.80;3.50;;;13.80;99.90;;;;;;4994598;28;20540;-72
2021/10/18 05:23:34;;;;;;;4.68;3.75;;;13.80;99.90;;;;;;4993725;28;20497;-72
2021/10/18 05:26:01;;;;;;;3.35;3.05;;;13.80;99.90;;;;;;4994231;28;20226;-73
2021/10/18 05:28:28;;;;;;;4.93;3.70;;;13.80;99.90;;;;;;4993942;28;20605;-73
2021/10/18 05:30:55;;;;;;;3.95;3.55;;;13.80;99.90;;;;;;5007754;28;20523;-73
2021/10/18 05:33:22;;;;;;;3.80;3.50;;;13.70;99.90;;;;;;5013394;28;20628;-73
2021/10/18 05:35:49;;;;;;;4.73;4.00;;;13.70;99.90;;;;;;5013979;28;20222;-72
2021/10/18 05:38:20;;;;;;;7.82;3.72;;;13.70;99.90;;;;;;5013261;28;20468;-73
2021/10/18 05:40:47;;;;;;;4.25;3.42;;;13.70;99.90;;;;;;5013788;28;20241;-72
2021/10/18 05:43:14;;;;;;;3.47;3.17;;;13.60;99.90;;;;;;5003291;28;20280;-73
2021/10/18 05:45:41;;;;;;;4.90;3.97;;;13.60;99.90;;;;;;5013739;28;20292;-72
2021/10/18 05:48:08;;;;;;;4.32;3.60;;;13.60;99.90;;;;;;5013681;28;20252;-73
2021/10/18 05:50:37;;;;;;;5.57;4.05;;;13.50;99.90;;;;;;5013272;28;20222;-72
2021/10/18 05:53:05;;;;;;;3.90;3.53;;;13.50;99.90;;;;;;5013044;28;20250;-73
2021/10/18 05:55:33;;;;;;;4.38;3.88;;;13.50;99.90;;;;;;5012955;28;20250;-72
2021/10/18 05:58:01;;;;;;;3.72;3.42;;;13.40;99.90;;;;;;5013511;28;20226;-73
2021/10/18 06:00:29;;;;;;;3.75;3.45;;;13.40;99.90;;;;;;5012635;28;20234;-72
2021/10/18 06:02:56;;;;;;;4.43;3.95;;;13.40;99.90;;;;;;5013493;28;20249;-72
2021/10/18 06:05:24;;;;;;;3.72;3.45;;;13.40;99.90;;;;;;5012874;28;20711;-73
2021/10/18 06:07:51;;;;;;;5.03;4.60;;;13.40;99.90;;;;;;5013248;28;20249;-73
2021/10/18 06:10:18;;;;;;;8.90;6.57;;;13.40;99.90;;;;;;5012832;28;20241;-73
2021/10/18 06:12:47;;;;;;;8.57;7.45;;;13.40;99.90;;;;;;5013431;28;20246;-74
2021/10/18 06:15:14;;;;;;;10.20;8.07;;;13.40;99.90;;;;;;5012707;28;20300;-73
2021/10/18 06:17:43;;;;;;;9.05;6.47;;;13.40;99.90;;;;;;5013261;28;20630;-73
2021/10/18 06:20:11;;;;;;;6.47;5.40;;;13.40;99.90;;;;;;5013085;28;20249;-73
2021/10/18 06:22:38;;;;;;;4.90;4.50;;;13.40;99.90;;;;;;5012562;28;20221;-74
2021/10/18 06:25:06;;;;;;;5.80;3.95;;;13.40;99.90;;;;;;5013117;28;20218;-73
2021/10/18 06:27:33;;;;;;;4.93;4.10;;;13.40;99.90;;;;;;5012444;28;20226;-73
2021/10/18 06:30:02;;;;;;;9.30;6.03;;;13.50;99.90;;;;;;5012866;28;20276;-74
2021/10/18 06:32:29;;;;;;;9.23;6.50;;;13.40;99.90;;;;;;5012703;28;20284;-73
2021/10/18 06:34:56;;;;;;;8.90;7.75;;;13.40;99.90;;;;;;5012894;28;20221;-74
2021/10/18 06:37:22;;;;;;;6.22;5.63;;;13.50;99.90;;;;;;5012458;28;20615;-73
2021/10/18 06:39:49;;;;;;;8.77;5.65;;;13.50;99.90;;;;;;5012729;28;20229;-72
2021/10/18 06:42:16;;;;;;;6.63;5.93;;;13.50;99.90;;;;;;5007781;28;20637;-71
2021/10/18 06:44:43;;;;;;;5.18;3.88;;;13.50;99.90;;;;;;5008011;28;20794;-72
2021/10/18 06:47:11;;;;;;;4.15;3.58;;;13.60;99.90;;;;;;5012862;28;20229;-71
2021/10/18 06:49:38;;;;;;;4.28;3.78;;;13.60;99.90;;;;;;5012381;28;20217;-71
2021/10/18 06:52:06;;;;;;;4.72;4.13;;;13.60;99.90;;;;;;5012804;28;20233;-71
2021/10/18 06:54:37;;;;;;;4.07;3.67;;;13.60;99.90;;;;;;5009061;28;20218;-72
2021/10/18 06:57:05;;;;;;;3.80;3.25;;;13.70;99.90;;;;;;4993023;28;20682;-74
2021/10/18 06:59:32;;;;;;;4.82;3.85;;;13.70;99.90;;;;;;4992469;28;20238;-72
2021/10/18 07:01:59;;;;;;;4.90;4.47;;;13.70;99.90;;;;;;4993102;28;20305;-72
2021/10/18 07:04:29;;;;;;;4.63;4.30;;;13.80;99.90;;;;;;4992563;28;20708;-73
2021/10/18 07:06:57;;;;;;;5.38;4.88;;;13.80;99.90;;;;;;4996211;28;20226;-72
2021/10/18 07:09:28;;;;;;;5.70;3.90;;;13.90;99.90;;;;;;4996331;28;20256;-73
2021/10/18 07:11:56;;;;;;;4.37;3.97;;;13.90;99.90;;;;;;4996939;28;20222;-73
2021/10/18 07:14:23;;;;;;;5.35;4.80;;;13.90;99.90;;;;;;4996404;28;20553;-73
2021/10/18 07:16:51;;;;;;;4.10;3.65;;;14.00;99.90;;;;;;4996880;28;20230;-72
2021/10/18 07:19:18;;;;;;;4.23;3.90;;;14.00;99.90;;;;;;4996253;28;20231;-73
2021/10/18 07:21:47;;;;;;;4.40;4.00;;;14.10;99.90;;;;;;4996704;28;20469;-73
2021/10/18 07:24:16;;;;;;;4.30;3.90;;;14.10;99.90;;;;;;4996513;28;20545;-73
2021/10/18 07:26:43;;;;;;;6.70;4.25;;;14.20;99.90;;;;;;4996290;28;20222;-73
2021/10/18 07:29:10;;;;;;;7.63;3.93;;;14.20;99.90;;;;;;4996465;28;20227;-73
2021/10/18 07:31:37;;;;;;;8.10;5.73;;;14.30;99.90;;;;;;5015448;28;20811;-73
2021/10/18 07:34:11;;;;;;;5.60;4.57;;;14.40;99.90;;;;;;5015817;28;20469;-73
2021/10/18 07:36:47;;;;;;;4.97;4.47;;;14.50;99.90;;;;;;5015567;28;20468;-73
2021/10/18 07:39:17;;;;;;;6.07;4.43;;;14.50;99.90;;;;;;5016011;28;20477;-73
2021/10/18 07:41:44;;;;;;;9.33;4.77;;;14.60;99.90;;;;;;5015166;28;20546;-73
2021/10/18 07:44:11;;;;;;;4.37;3.93;;;14.60;99.90;;;;;;5006482;28;20495;-73
2021/10/18 07:46:38;;;;;;;4.87;4.17;;;14.70;99.90;;;;;;5015467;28;20477;-73
2021/10/18 07:49:05;;;;;;;4.30;3.60;;;14.70;99.90;;;;;;5014918;28;20535;-73
2021/10/18 07:51:32;;;;;;;5.10;3.60;;;14.80;99.90;;;;;;5015358;28;20808;-73
2021/10/18 07:53:59;;;;;;;3.60;3.30;;;14.80;99.90;;;;;;5015793;28;20984;-73
2021/10/18 07:56:27;;;;;;;5.67;4.37;;;14.80;99.90;;;;;;5015146;28;20781;-72
2021/10/18 07:58:54;;;;;;;4.23;3.83;;;14.80;99.90;;;;;;5015460;28;20468;-72
2021/10/18 08:01:21;;;;;;;4.80;3.00;;;14.80;99.90;;;;;;5015275;28;20481;-73
2021/10/18 08:03:48;;;;;;;5.53;3.53;;;14.80;99.90;;;;;;5015503;28;20970;-73
2021/10/18 08:06:15;;;;;;;4.27;2.70;;;14.90;99.90;;;;;;5015420;28;20469;-73
2021/10/18 08:08:45;;;;;;;7.70;4.30;;;14.90;99.90;;;;;;5014943;28;20473;-73
2021/10/18 08:11:12;;;;;;;3.03;2.60;;;14.90;99.90;;;;;;5015380;28;20548;-73
2021/10/18 08:13:45;;;;;;;3.73;3.00;;;15.00;99.90;;;;;;5015046;28;20477;-73
2021/10/18 08:16:12;;;;;;;3.63;3.33;;;15.00;99.90;;;;;;5015087;28;20838;-73
2021/10/18 08:18:39;;;;;;;3.50;3.17;;;15.10;99.90;;;;;;5014651;28;20974;-73
2021/10/18 08:21:06;;;;;;;3.97;3.40;;;15.10;99.90;;;;;;5015297;28;20835;-72
2021/10/18 08:23:34;;;;;;;8.10;3.73;;;15.10;99.90;;;;;;5014816;28;20534;-71
2021/10/18 08:26:01;;;;;;;6.93;4.30;;;15.20;99.90;;;;;;5015022;28;20480;-72
2021/10/18 08:28:29;;;;;;;4.07;2.77;;;15.20;99.90;;;;;;5014489;28;20469;-72
2021/10/18 08:30:58;;;;;;;6.77;3.37;;;15.20;99.90;;;;;;5014818;28;20971;-72
2021/10/18 08:33:25;;;;;;;3.70;2.87;;;15.30;99.90;;;;;;5014719;28;20520;-72
2021/10/18 08:35:53;;;;;;;5.23;3.60;;;15.30;99.90;;;;;;5034827;28;20475;-72
2021/10/18 08:41:04;;;;;;;5.23;2.73;;;15.40;99.90;;;;;;5023086;28;20461;-73
2021/10/18 08:46:14;;;;;;;7.43;3.90;;;15.50;99.90;;;;;;5033756;28;20522;-72
2021/10/18 08:48:41;;;;;;;3.90;2.43;;;15.50;99.90;;;;;;5034478;28;20862;-72
2021/10/18 08:51:08;;;;;;;3.37;3.07;;;15.50;99.90;;;;;;5034009;28;20788;-72
2021/10/18 08:53:35;;;;;;;3.60;3.30;;;15.60;99.90;;;;;;5034267;28;20464;-73
2021/10/18 08:56:02;;;;;;;4.70;2.87;;;15.60;99.90;;;;;;5034314;28;20534;-73
2021/10/18 08:58:28;;;;;;;3.67;3.37;;;15.70;99.90;;;;;;5033728;28;20460;-72
2021/10/18 09:00:55;;;;;;;5.80;4.10;;;15.70;99.90;;;;;;5034190;28;20472;-73
2021/10/18 09:03:25;;;;;;;7.70;4.30;;;15.70;99.90;;;;;;5033875;28;20472;-74
2021/10/18 09:06:10;;;;;;;6.83;3.93;;;15.70;99.90;;;;;;5034101;28;20565;-73
2021/10/18 09:08:39;;;;;;;4.37;3.97;;;15.80;99.90;;;;;;5033480;28;20455;-72
2021/10/18 09:11:08;;;;;;;5.30;4.70;;;15.80;99.90;;;;;;5034173;28;20472;-73
2021/10/18 09:13:37;;;;;;;4.80;4.40;;;15.80;99.90;;;;;;5033506;28;20526;-73
2021/10/18 09:16:04;;;;;;;5.27;3.60;;;15.90;99.90;;;;;;5033874;28;20480;-73
2021/10/18 09:18:32;;;;;;;4.53;4.07;;;15.90;99.90;;;;;;5033368;28;20469;-72
2021/10/18 09:20:59;;;;;;;4.30;3.90;;;15.90;99.90;;;;;;5033860;28;20522;-72
2021/10/18 09:23:29;;;;;;;3.70;3.20;;;16.00;99.90;;;;;;5033368;28;21036;-72
2021/10/18 09:26:01;;;;;;;4.23;3.70;;;16.00;99.70;;;;;;5033717;28;20468;-72
2021/10/18 09:28:29;;;;;;;6.03;4.40;;;16.10;99.70;;;;;;5032440;28;20480;-72
2021/10/18 09:30:57;;;;;;;5.70;4.50;;;16.10;98.80;;;;;;5033609;28;20480;-73
2021/10/18 09:33:27;;;;;;;6.50;5.80;;;16.20;98.40;;;;;;5033085;28;20476;-73
2021/10/18 09:35:58;;;;;;;4.97;4.10;;;16.20;98.60;;;;;;5033486;28;20479;-72
2021/10/18 09:38:26;;;;;;;4.70;4.27;;;16.20;98.40;;;;;;5032441;28;20474;-72
2021/10/18 09:40:55;;;;;;;6.53;4.00;;;16.30;98.50;;;;;;5024158;28;20460;-73
2021/10/18 09:43:31;;;;;;;9.50;3.90;;;16.30;98.10;;;;;;5028481;28;20473;-73
2021/10/18 09:46:10;;;;;;;4.37;3.40;;;16.40;97.60;;;;;;5013866;28;20456;-71
2021/10/18 10:51:20;;;;;;;5.07;4.53;;;16.60;95.80;;;;;;4993380;28;20536;-72
2021/10/18 10:53:52;;;;;;;5.40;4.07;;;16.60;95.50;;;;;;4993047;28;20493;-73
2021/10/18 10:56:36;;;;;;;5.50;4.53;;;16.60;95.50;;;;;;5011298;28;20475;-73
2021/10/18 10:59:18;;;;;;;4.80;4.10;;;16.60;95.10;;;;;;5011696;28;20479;-73
2021/10/18 11:01:57;;;;;;;6.60;4.80;;;16.60;95.30;;;;;;5012610;28;20843;-73
2021/10/18 11:04:47;;;;;;;6.07;4.87;;;16.60;95.30;;;;;;5012624;28;20519;-73
2021/10/18 11:07:20;;;;;;;5.23;4.73;;;16.50;94.70;;;;;;5012267;28;20460;-73
2021/10/18 11:09:49;;;;;;;5.40;4.17;;;16.50;94.80;;;;;;5012154;28;20473;-74
2021/10/18 11:12:26;;;;;;;5.33;3.70;;;16.50;94.90;;;;;;5012358;28;20499;-73
2021/10/18 11:14:58;;;;;;;4.73;3.47;;;16.50;95.10;;;;;;4993099;28;20474;-73
2021/10/18 11:17:27;;;;;;;5.27;3.90;;;16.50;95.20;;;;;;5007404;28;20554;-73
2021/10/18 11:19:56;;;;;;;4.37;3.40;;;16.50;95.40;;;;;;5012758;28;20480;-73
2021/10/18 11:22:29;;;;;;;3.97;2.27;;;16.40;95.10;;;;;;5012103;28;20514;-73
2021/10/18 11:24:56;;;;;;;3.50;3.20;;;16.50;95.10;;;;;;5012361;28;20499;-74
2021/10/18 11:27:31;;;;;;;3.43;3.13;;;16.40;94.90;;;;;;5012062;28;20469;-74
2021/10/18 11:30:00;;;;;;;4.50;3.00;;;16.50;94.90;;;;;;5006381;28;20550;-73
2021/10/18 11:32:27;;;;;;;3.30;3.00;;;16.50;95.00;;;;;;4992471;28;20465;-73
2021/10/18 11:35:14;;;;;;;3.80;2.57;;;16.60;94.80;;;;;;4992841;28;20528;-74
2021/10/18 11:37:49;;;;;;;3.47;2.80;;;16.60;94.90;;;;;;4993213;28;20516;-73
2021/10/18 11:40:19;;;;;;;5.90;3.27;;;16.60;95.00;;;;;;5008819;28;21274;-73
2021/10/18 11:42:52;;;;;;;3.27;2.97;;;16.60;94.80;;;;;;5012353;28;20476;-74
2021/10/18 11:45:20;;;;;;;3.50;2.53;;;16.70;94.90;;;;;;5012172;28;21214;-73
2021/10/18 11:47:47;;;;;;;3.00;2.73;;;16.70;95.00;;;;;;5012290;28;20468;-73
2021/10/18 11:50:25;;;;;;;4.50;2.70;;;16.70;95.10;;;;;;5011581;28;20484;-74
2021/10/18 11:52:57;;;;;;;3.50;3.20;;;16.70;95.20;;;;;;5014901;28;20555;-74
2021/10/18 11:55:29;;;;;;;4.53;3.90;;;16.80;95.30;;;;;;5015570;28;21344;-72
2021/10/18 11:57:59;;;;;;;3.90;3.30;;;16.80;95.40;;;;;;5015820;28;20473;-72
2021/10/18 12:00:28;;;;;;;6.73;3.97;;;16.90;95.50;;;;;;5023167;28;20535;-74
2021/10/18 12:03:01;;;;;;;5.90;2.80;;;16.90;95.40;;;;;;5015501;28;20476;-73
2021/10/18 12:05:36;;;;;;;3.37;2.27;;;16.90;95.20;;;;;;5035130;28;20514;-73
2021/10/18 12:08:04;;;;;;;6.67;3.03;;;17.00;95.30;;;;;;5034890;28;20470;-72
2021/10/18 12:10:33;;;;;;;4.30;3.13;;;17.00;94.90;;;;;;5017883;28;21384;-72
2021/10/18 12:13:09;;;;;;;4.00;3.37;;;17.00;94.80;;;;;;5013374;28;20473;-73
2021/10/18 12:15:44;;;;;;;3.20;2.90;;;17.10;94.50;;;;;;5007062;28;20587;-73
2021/10/18 12:18:11;;;;;;;5.57;2.97;;;17.10;94.20;;;;;;5019837;28;20498;-73
2021/10/18 12:20:41;;;;;;;3.60;3.00;;;17.10;94.30;;;;;;5003823;28;20520;-73
2021/10/18 12:23:11;;;;;;;4.20;2.90;;;17.10;93.90;;;;;;4995357;28;20474;-73
2021/10/18 12:25:38;;;;;;;3.50;2.80;;;17.10;94.00;;;;;;4994852;28;20493;-73
2021/10/18 12:28:41;;;;;;;2.93;2.17;;;17.10;94.00;;;;;;4998982;28;20473;-72
2021/10/18 12:31:28;;;;;;;3.60;2.40;;;17.20;93.60;;;;;;4993526;28;20469;-73
2021/10/18 12:34:06;;;;;;;2.30;1.87;;;17.20;93.00;;;;;;5007738;28;20469;-73
2021/10/18 12:36:46;;;;;;;2.57;2.37;;;17.20;93.10;;;;;;4995265;28;20549;-73
2021/10/18 12:39:15;;;;;;;2.90;2.57;;;17.20;93.30;;;;;;4997659;28;20556;-72
2021/10/18 12:41:43;;;;;;;6.03;2.50;;;17.20;93.60;;;;;;5007548;28;20472;-76
2021/10/18 12:44:13;;;;;;;3.07;2.40;;;17.20;93.50;;;;;;5005062;28;20477;-73
2021/10/18 12:46:41;;;;;;;3.73;2.53;;;17.20;93.50;;;;;;5006367;28;20500;-73
2021/10/18 12:49:09;;;;;;;2.87;2.10;;;17.30;93.60;;;;;;4995587;28;22372;-73
2021/10/18 12:51:42;;;;;;;4.77;2.33;;;17.30;93.70;;;;;;4995170;28;20482;-73
2021/10/18 12:54:23;;;;;;;2.60;2.40;;;17.30;93.90;;;;;;5007594;28;20473;-72
2021/10/18 12:57:04;;;;;;;9.37;5.47;;;17.30;94.20;;;;;;4994796;28;20497;-73
2021/10/18 12:59:35;;;;;;;4.33;3.30;;;17.30;94.30;;;;;;5004651;28;20492;-73
2021/10/18 13:02:22;;;;;;;5.00;2.70;;;17.40;94.10;;;;;;4997354;28;20466;-73
2021/10/18 13:05:10;;;;;;;6.40;3.97;;;17.40;94.00;;;;;;4993738;28;20509;-72
2021/10/18 13:07:39;;;;;;;21.27;13.17;;;17.40;93.80;;;;;;5004498;28;20489;-72
2021/10/18 13:10:08;;;;;;;8.70;7.00;;;17.30;93.90;;;;;;5011405;28;20465;-73
2021/10/18 13:12:34;;;;;;;6.53;5.10;;;17.40;94.00;;;;;;5028046;28;20472;-73
2021/10/18 13:15:03;;;;;;;2.93;2.63;;;17.40;93.70;;;;;;4994213;28;20453;-73
2021/10/18 13:17:30;;;;;;;3.60;2.80;;;17.40;93.50;;;;;;5002257;28;20552;-71
2021/10/18 13:19:57;;;;;;;4.00;2.23;;;17.40;93.60;;;;;;5011741;28;20476;-72
2021/10/18 13:22:24;;;;;;;4.13;3.20;;;17.40;93.50;;;;;;4994409;28;20465;-74
2021/10/18 13:24:52;;;;;;;6.90;5.17;;;17.40;93.50;;;;;;5007141;28;20469;-73
2021/10/18 13:27:20;;;;;;;4.03;3.50;;;17.40;93.50;;;;;;4994295;28;20470;-73
2021/10/18 13:29:53;;;;;;;6.27;5.67;;;17.40;93.70;;;;;;4996184;28;20470;-73
2021/10/18 13:32:21;;;;;;;6.67;5.97;;;17.40;93.70;;;;;;5003984;28;20494;-73
2021/10/18 13:34:48;;;;;;;5.80;5.10;;;17.40;93.70;;;;;;4993510;28;20478;-73
2021/10/18 13:37:15;;;;;;;3.83;3.27;;;17.40;93.50;;;;;;5003909;28;21017;-73
2021/10/18 13:39:43;;;;;;;6.20;5.10;;;17.40;93.40;;;;;;4996316;28;20469;-72
2021/10/18 13:42:11;;;;;;;3.33;3.07;;;17.40;93.20;;;;;;4997603;28;20980;-72
2021/10/18 13:44:39;;;;;;;3.70;1.97;;;17.40;93.00;;;;;;5001614;28;20531;-72
2021/10/18 13:47:08;;;;;;;3.03;2.73;;;17.40;92.20;;;;;;5001821;28;20478;-73
2021/10/18 13:49:37;;;;;;;3.40;2.07;;;17.40;92.40;;;;;;4998560;28;20469;-72
2021/10/18 13:52:05;;;;;;;4.27;2.57;;;17.40;92.40;;;;;;5001140;28;20540;-73
2021/10/18 13:54:32;;;;;;;3.33;2.60;;;17.40;92.30;;;;;;4993377;28;20481;-71
2021/10/18 13:56:59;;;;;;;5.40;3.00;;;17.40;92.20;;;;;;4993090;28;20617;-73
2021/10/18 13:59:26;;;;;;;2.70;2.20;;;17.30;92.20;;;;;;4992245;28;20589;-73
2021/10/18 14:01:53;;;;;;;3.83;3.40;;;17.30;92.20;;;;;;4992431;28;20478;-72